createdAt,value
2019-05-14T00:00:28.839Z,0.00
2019-05-14T00:01:31.306Z,0.00
2019-05-14T00:02:28.870Z,0.00
2019-05-14T00:03:31.000Z,0.00
2019-05-14T00:04:28.905Z,0.00
2019-05-14T00:05:28.916Z,0.00
2019-05-14T00:06:31.029Z,0.00
2019-05-14T00:07:28.947Z,0.00
2019-05-14T00:08:31.247Z,0.00
2019-05-14T00:09:28.980Z,0.00
2019-05-14T00:10:28.998Z,0.00
2019-05-14T00:11:31.200Z,0.00
2019-05-14T00:12:31.363Z,0.00
2019-05-14T00:13:29.040Z,0.00
2019-05-14T00:14:38.709Z,0.00
2019-05-14T00:15:29.073Z,0.00
2019-05-14T00:16:31.411Z,0.00
2019-05-14T00:17:29.105Z,0.00
2019-05-14T00:18:31.249Z,0.00
2019-05-14T00:19:29.133Z,0.00
2019-05-14T00:20:31.254Z,0.00
2019-05-14T00:21:31.478Z,0.00
2019-05-14T00:22:29.181Z,0.00
2019-05-14T00:23:31.673Z,0.00
2019-05-14T00:24:29.215Z,0.00
2019-05-14T00:25:31.126Z,0.00
2019-05-14T00:26:29.247Z,0.00
2019-05-14T00:27:31.035Z,0.00
2019-05-14T00:28:31.555Z,0.00
2019-05-14T00:29:29.291Z,0.00
2019-05-14T00:30:31.050Z,0.00
2019-05-14T00:31:31.636Z,0.00
2019-05-14T00:32:31.662Z,0.00
2019-05-14T00:33:31.379Z,0.00
2019-05-14T00:34:31.430Z,0.00
2019-05-14T00:35:29.383Z,0.00
2019-05-14T00:36:29.398Z,0.00
2019-05-14T00:37:29.412Z,0.00
2019-05-14T00:38:31.366Z,0.00
2019-05-14T00:39:31.821Z,0.00
2019-05-14T00:40:31.219Z,0.00
2019-05-14T00:41:31.178Z,0.00
2019-05-14T00:42:31.755Z,0.00
2019-05-14T00:43:29.512Z,0.00
2019-05-14T00:44:32.122Z,0.00
2019-05-14T00:45:31.246Z,0.00
2019-05-14T00:46:31.483Z,0.00
2019-05-14T00:47:30.978Z,0.00
2019-05-14T00:48:31.832Z,0.00
2019-05-14T00:49:31.544Z,0.00
2019-05-14T00:50:31.518Z,0.00
2019-05-14T00:51:31.500Z,0.00
2019-05-14T00:52:31.401Z,0.00
2019-05-14T00:53:31.827Z,0.00
2019-05-14T00:54:32.027Z,0.00
2019-05-14T00:55:31.454Z,0.00
2019-05-14T00:56:31.995Z,0.00
2019-05-14T00:57:31.474Z,0.00
2019-05-14T00:58:31.038Z,0.00
2019-05-14T00:59:32.005Z,0.00
2019-05-14T01:00:31.335Z,0.00
2019-05-14T01:01:31.638Z,0.00
2019-05-14T01:02:31.856Z,0.00
2019-05-14T01:03:32.175Z,0.00
2019-05-14T01:04:31.725Z,0.00
2019-05-14T01:05:31.985Z,0.00
2019-05-14T01:06:31.488Z,0.00
2019-05-14T01:07:31.517Z,0.00
2019-05-14T01:08:31.837Z,0.00
2019-05-14T01:09:31.453Z,0.00
2019-05-14T01:10:31.395Z,0.00
2019-05-14T01:11:31.456Z,0.00
2019-05-14T01:12:31.718Z,0.00
2019-05-14T01:13:31.247Z,0.00
2019-05-14T01:14:31.757Z,0.00
2019-05-14T01:15:32.066Z,0.00
2019-05-14T01:16:31.785Z,0.00
2019-05-14T01:17:31.463Z,0.00
2019-05-14T01:18:32.047Z,0.00
2019-05-14T01:19:31.538Z,0.00
2019-05-14T01:20:31.912Z,0.00
2019-05-14T01:21:31.259Z,0.00
2019-05-14T01:22:31.652Z,0.00
2019-05-14T01:23:32.061Z,0.00
2019-05-14T01:24:32.142Z,0.00
2019-05-14T01:25:31.773Z,0.00
2019-05-14T01:26:31.006Z,0.00
2019-05-14T01:27:31.753Z,0.00
2019-05-14T01:28:31.968Z,0.00
2019-05-14T01:29:31.664Z,0.00
2019-05-14T01:30:31.935Z,0.00
2019-05-14T01:31:31.471Z,0.00
2019-05-14T01:32:31.509Z,0.00
2019-05-14T01:33:31.908Z,0.00
2019-05-14T01:34:32.183Z,0.00
2019-05-14T01:35:31.563Z,0.00
2019-05-14T01:36:32.025Z,0.00
2019-05-14T01:37:31.134Z,0.00
2019-05-14T01:38:31.417Z,0.00
2019-05-14T01:39:32.047Z,0.00
2019-05-14T01:40:31.528Z,0.00
2019-05-14T01:41:31.712Z,0.00
2019-05-14T01:42:32.077Z,0.00
2019-05-14T01:43:31.544Z,0.00
2019-05-14T01:44:31.864Z,0.00
2019-05-14T01:45:31.639Z,0.00
2019-05-14T01:46:31.619Z,0.00
2019-05-14T01:47:31.910Z,0.00
2019-05-14T01:48:31.305Z,0.00
2019-05-14T01:49:31.717Z,0.00
2019-05-14T01:50:32.190Z,0.00
2019-05-14T01:51:31.547Z,0.00
2019-05-14T01:52:31.824Z,0.00
2019-05-14T01:53:31.199Z,0.00
2019-05-14T01:54:31.664Z,0.00
2019-05-14T01:55:32.395Z,0.00
2019-05-14T01:56:31.923Z,0.00
2019-05-14T01:57:31.206Z,0.00
2019-05-14T01:58:31.170Z,0.00
2019-05-14T01:59:32.171Z,0.00
2019-05-14T02:00:31.379Z,0.00
2019-05-14T02:01:31.519Z,0.00
2019-05-14T02:02:31.349Z,0.00
2019-05-14T02:03:32.298Z,0.00
2019-05-14T02:04:31.665Z,0.00
2019-05-14T02:05:31.073Z,0.00
2019-05-14T02:06:31.833Z,0.00
2019-05-14T02:07:31.412Z,0.00
2019-05-14T02:08:32.222Z,0.00
2019-05-14T02:09:31.190Z,0.00
2019-05-14T02:10:31.521Z,0.00
2019-05-14T02:11:32.110Z,0.00
2019-05-14T02:12:31.562Z,0.00
2019-05-14T02:13:32.270Z,0.00
2019-05-14T02:14:31.492Z,0.00
2019-05-14T02:15:39.070Z,0.00
2019-05-14T02:16:31.438Z,0.00
2019-05-14T02:17:31.805Z,0.00
2019-05-14T02:18:31.105Z,0.00
2019-05-14T02:19:31.634Z,0.00
2019-05-14T02:20:32.139Z,0.00
2019-05-14T02:21:31.716Z,0.00
2019-05-14T02:22:32.044Z,0.00
2019-05-14T02:23:32.085Z,0.00
2019-05-14T02:24:32.198Z,0.00
2019-05-14T02:25:31.983Z,0.00
2019-05-14T02:26:31.614Z,0.00
2019-05-14T02:27:34.891Z,0.00
2019-05-14T02:28:31.441Z,0.00
2019-05-14T02:29:31.988Z,0.00
2019-05-14T02:30:46.004Z,0.00
2019-05-14T02:31:31.143Z,0.00
2019-05-14T02:32:31.175Z,0.00
2019-05-14T02:33:31.174Z,0.00
2019-05-14T02:34:31.190Z,0.00
2019-05-14T02:35:31.202Z,0.00
2019-05-14T02:36:31.235Z,0.00
2019-05-14T02:37:31.236Z,0.00
2019-05-14T02:38:31.247Z,0.00
2019-05-14T02:39:31.264Z,0.00
2019-05-14T02:40:31.277Z,0.00
2019-05-14T02:41:31.293Z,0.00
2019-05-14T02:42:31.307Z,0.00
2019-05-14T02:43:31.322Z,0.00
2019-05-14T02:44:31.336Z,0.00
2019-05-14T02:45:31.351Z,0.00
2019-05-14T02:46:31.373Z,0.00
2019-05-14T02:47:31.381Z,0.00
2019-05-14T02:48:31.399Z,0.00
2019-05-14T02:49:31.410Z,0.00
2019-05-14T02:50:31.425Z,0.00
2019-05-14T02:51:31.462Z,0.00
2019-05-14T02:52:31.457Z,0.00
2019-05-14T02:53:31.470Z,0.00
2019-05-14T02:54:31.500Z,0.00
2019-05-14T02:55:31.502Z,0.00
2019-05-14T02:56:31.513Z,0.00
2019-05-14T02:57:31.530Z,0.00
2019-05-14T02:58:31.545Z,0.00
2019-05-14T02:59:31.562Z,0.00
2019-05-14T03:00:31.573Z,0.00
2019-05-14T03:01:31.589Z,0.00
2019-05-14T03:02:31.603Z,0.00
2019-05-14T03:03:31.620Z,5.63
2019-05-14T03:04:31.635Z,5.63
2019-05-14T03:05:31.648Z,5.63
2019-05-14T03:06:31.662Z,5.63
2019-05-14T03:07:31.677Z,5.63
2019-05-14T03:08:31.699Z,5.63
2019-05-14T03:09:31.706Z,5.63
2019-05-14T03:10:31.728Z,5.63
2019-05-14T03:11:31.738Z,11.25
2019-05-14T03:12:31.753Z,11.25
2019-05-14T03:13:31.765Z,11.25
2019-05-14T03:14:31.779Z,11.25
2019-05-14T03:15:31.796Z,11.25
2019-05-14T03:16:35.692Z,11.25
2019-05-14T03:17:31.915Z,16.88
2019-05-14T03:18:31.883Z,16.88
2019-05-14T03:19:31.913Z,16.88
2019-05-14T03:20:31.915Z,16.88
2019-05-14T03:21:31.901Z,16.88
2019-05-14T03:22:46.370Z,22.50
2019-05-14T03:23:31.970Z,22.50
2019-05-14T03:24:31.984Z,22.50
2019-05-14T03:25:31.992Z,22.50
2019-05-14T03:26:31.989Z,28.13
2019-05-14T03:27:31.970Z,28.13
2019-05-14T03:28:31.988Z,28.13
2019-05-14T03:29:32.002Z,28.13
2019-05-14T03:30:32.858Z,33.75
2019-05-14T03:31:33.592Z,33.75
2019-05-14T03:32:33.291Z,33.75
2019-05-14T03:33:33.701Z,33.75
2019-05-14T03:34:33.522Z,39.38
2019-05-14T03:35:41.577Z,39.38
2019-05-14T03:36:34.901Z,39.38
2019-05-14T03:37:32.119Z,45.00
2019-05-14T03:38:32.134Z,45.00
2019-05-14T03:39:32.145Z,45.00
2019-05-14T03:40:32.162Z,45.00
2019-05-14T03:41:32.173Z,50.63
2019-05-14T03:42:32.190Z,50.63
2019-05-14T03:43:32.208Z,50.63
2019-05-14T03:44:32.218Z,50.63
2019-05-14T03:45:32.233Z,56.25
2019-05-14T03:46:46.049Z,56.25
2019-05-14T03:47:32.263Z,56.25
2019-05-14T03:48:32.277Z,61.88
2019-05-14T03:49:32.292Z,61.88
2019-05-14T03:50:32.304Z,61.88
2019-05-14T03:51:32.323Z,61.88
2019-05-14T03:52:32.358Z,67.50
2019-05-14T03:53:49.725Z,67.50
2019-05-14T03:54:32.374Z,67.50
2019-05-14T03:55:32.381Z,67.50
2019-05-14T03:56:32.394Z,73.13
2019-05-14T03:57:32.408Z,73.13
2019-05-14T03:58:32.422Z,73.13
2019-05-14T03:59:32.482Z,78.75
2019-05-14T04:00:32.452Z,78.75
2019-05-14T04:01:32.474Z,78.75
2019-05-14T04:02:32.480Z,78.75
2019-05-14T04:03:32.509Z,84.38
2019-05-14T04:04:32.511Z,84.38
2019-05-14T04:05:32.529Z,84.38
2019-05-14T04:06:32.541Z,84.38
2019-05-14T04:07:32.555Z,90.00
2019-05-14T04:08:32.586Z,90.00
2019-05-14T04:09:32.584Z,90.00
2019-05-14T04:10:32.601Z,90.00
2019-05-14T04:11:32.618Z,95.63
2019-05-14T04:12:32.632Z,95.63
2019-05-14T04:13:32.661Z,95.63
2019-05-14T04:14:32.664Z,95.63
2019-05-14T04:15:32.675Z,101.25
2019-05-14T04:16:32.692Z,101.25
2019-05-14T04:17:37.834Z,101.25
2019-05-14T04:18:32.720Z,101.25
2019-05-14T04:19:32.733Z,106.88
2019-05-14T04:20:32.750Z,106.88
2019-05-14T04:21:32.769Z,106.88
2019-05-14T04:22:32.778Z,106.88
2019-05-14T04:23:32.793Z,106.88
2019-05-14T04:24:36.758Z,112.50
2019-05-14T04:25:32.823Z,112.50
2019-05-14T04:26:50.896Z,112.50
2019-05-14T04:27:32.851Z,112.50
2019-05-14T04:28:32.867Z,112.50
2019-05-14T04:29:32.881Z,118.13
2019-05-14T04:30:32.910Z,118.13
2019-05-14T04:31:32.929Z,118.13
2019-05-14T04:32:32.989Z,118.13
2019-05-14T04:33:32.945Z,123.75
2019-05-14T04:34:32.957Z,123.75
2019-05-14T04:35:32.972Z,123.75
2019-05-14T04:36:32.987Z,123.75
2019-05-14T04:37:33.003Z,123.75
2019-05-14T04:38:33.019Z,129.38
2019-05-14T04:39:33.032Z,129.38
2019-05-14T04:40:33.073Z,129.38
2019-05-14T04:41:33.076Z,129.38
2019-05-14T04:42:33.076Z,135.00
2019-05-14T04:43:33.100Z,135.00
2019-05-14T04:44:33.110Z,135.00
2019-05-14T04:45:33.120Z,140.63
2019-05-14T04:46:33.138Z,140.63
2019-05-14T04:47:37.208Z,140.63
2019-05-14T04:48:37.623Z,140.63
2019-05-14T04:49:33.190Z,140.63
2019-05-14T04:50:33.199Z,146.25
2019-05-14T04:51:33.214Z,146.25
2019-05-14T04:52:33.230Z,146.25
2019-05-14T04:53:33.241Z,146.25
2019-05-14T04:54:33.265Z,151.88
2019-05-14T04:55:33.273Z,151.88
2019-05-14T04:56:33.289Z,157.50
2019-05-14T04:57:33.303Z,157.50
2019-05-14T04:58:33.320Z,157.50
2019-05-14T04:59:33.337Z,163.13
2019-05-14T05:00:33.350Z,163.13
2019-05-14T05:01:33.363Z,163.13
2019-05-14T05:02:33.381Z,163.13
2019-05-14T05:03:33.394Z,163.13
2019-05-14T05:04:33.412Z,168.75
2019-05-14T05:05:33.424Z,168.75
2019-05-14T05:06:33.442Z,174.38
2019-05-14T05:07:33.463Z,180.00
2019-05-14T05:08:33.473Z,180.00
2019-05-14T05:09:33.486Z,174.38
2019-05-14T05:10:33.500Z,180.00
2019-05-14T05:11:33.517Z,180.00
2019-05-14T05:12:33.530Z,202.50
2019-05-14T05:13:33.547Z,185.63
2019-05-14T05:14:33.564Z,185.63
2019-05-14T05:15:33.579Z,208.13
2019-05-14T05:16:33.594Z,275.63
2019-05-14T05:17:44.275Z,320.63
2019-05-14T05:18:33.626Z,326.25
2019-05-14T05:19:33.644Z,264.38
2019-05-14T05:20:33.656Z,213.75
2019-05-14T05:21:33.682Z,202.50
2019-05-14T05:22:33.756Z,202.50
2019-05-14T05:23:33.769Z,202.50
2019-05-14T05:24:33.758Z,196.88
2019-05-14T05:25:33.768Z,213.75
2019-05-14T05:26:33.820Z,202.50
2019-05-14T05:27:33.813Z,196.88
2019-05-14T05:28:33.811Z,196.88
2019-05-14T05:29:33.815Z,196.88
2019-05-14T05:30:33.820Z,196.88
2019-05-14T05:31:33.828Z,202.50
2019-05-14T05:32:33.847Z,202.50
2019-05-14T05:33:33.860Z,208.13
2019-05-14T05:34:33.874Z,208.13
2019-05-14T05:35:33.900Z,208.13
2019-05-14T05:36:33.909Z,247.50
2019-05-14T05:37:33.922Z,264.38
2019-05-14T05:38:33.939Z,219.38
2019-05-14T05:39:33.954Z,219.38
2019-05-14T05:40:33.971Z,292.50
2019-05-14T05:41:33.986Z,388.13
2019-05-14T05:42:34.002Z,303.75
2019-05-14T05:43:34.021Z,230.63
2019-05-14T05:44:34.033Z,230.63
2019-05-14T05:45:34.051Z,236.25
2019-05-14T05:46:34.066Z,247.50
2019-05-14T05:47:34.081Z,241.88
2019-05-14T05:48:34.099Z,286.88
2019-05-14T05:49:34.116Z,253.13
2019-05-14T05:50:34.132Z,303.75
2019-05-14T05:51:34.146Z,354.38
2019-05-14T05:52:34.164Z,337.50
2019-05-14T05:53:34.182Z,320.63
2019-05-14T05:54:34.196Z,365.63
2019-05-14T05:55:34.212Z,399.38
2019-05-14T05:56:34.230Z,292.50
2019-05-14T05:57:34.247Z,270.00
2019-05-14T05:58:34.261Z,281.25
2019-05-14T05:59:34.280Z,399.38
2019-05-14T06:00:34.297Z,410.63
2019-05-14T06:01:45.010Z,382.50
2019-05-14T06:02:34.327Z,421.88
2019-05-14T06:03:34.369Z,241.88
2019-05-14T06:04:34.359Z,360.00
2019-05-14T06:05:34.376Z,348.75
2019-05-14T06:06:34.392Z,433.13
2019-05-14T06:07:34.410Z,365.63
2019-05-14T06:08:34.428Z,376.88
2019-05-14T06:09:34.441Z,376.88
2019-05-14T06:10:34.458Z,354.38
2019-05-14T06:11:34.475Z,337.50
2019-05-14T06:12:34.495Z,562.50
2019-05-14T06:13:34.509Z,500.63
2019-05-14T06:14:34.525Z,579.38
2019-05-14T06:15:45.608Z,641.25
2019-05-14T06:16:34.560Z,630.00
2019-05-14T06:17:34.576Z,669.38
2019-05-14T06:18:34.702Z,888.75
2019-05-14T06:19:34.611Z,877.50
2019-05-14T06:20:34.627Z,798.75
2019-05-14T06:21:34.647Z,624.38
2019-05-14T06:22:34.670Z,585.00
2019-05-14T06:23:34.681Z,450.00
2019-05-14T06:24:34.698Z,573.75
2019-05-14T06:25:34.725Z,624.38
2019-05-14T06:26:34.734Z,725.63
2019-05-14T06:27:34.751Z,630.00
2019-05-14T06:28:34.769Z,646.88
2019-05-14T06:29:34.786Z,691.88
2019-05-14T06:30:34.806Z,624.38
2019-05-14T06:31:34.822Z,624.38
2019-05-14T06:32:34.842Z,995.63
2019-05-14T06:33:34.857Z,849.38
2019-05-14T06:34:34.877Z,1012.50
2019-05-14T06:35:34.926Z,1546.88
2019-05-14T06:36:34.914Z,2570.63
2019-05-14T06:37:34.932Z,2553.75
2019-05-14T06:38:34.950Z,1018.13
2019-05-14T06:39:34.971Z,2323.13
2019-05-14T06:40:34.992Z,1501.88
2019-05-14T06:41:35.007Z,2328.75
2019-05-14T06:42:35.031Z,1451.25
2019-05-14T06:43:35.047Z,2053.13
2019-05-14T06:44:35.070Z,2261.25
2019-05-14T06:45:35.085Z,2233.13
2019-05-14T06:46:35.107Z,2098.13
2019-05-14T06:47:35.130Z,2278.13
2019-05-14T06:48:35.149Z,641.25
2019-05-14T06:49:35.183Z,2469.38
2019-05-14T06:50:35.191Z,1501.88
2019-05-14T06:51:35.212Z,680.63
2019-05-14T06:52:35.236Z,967.50
2019-05-14T06:53:35.257Z,2210.63
2019-05-14T06:54:35.280Z,360.00
2019-05-14T06:55:35.310Z,1603.13
2019-05-14T06:56:35.320Z,663.75
2019-05-14T06:57:35.341Z,568.13
2019-05-14T06:58:35.367Z,2295.00
2019-05-14T06:59:35.384Z,2199.38
2019-05-14T07:00:35.406Z,410.63
2019-05-14T07:01:35.424Z,393.75
2019-05-14T07:02:35.448Z,421.88
2019-05-14T07:03:35.469Z,624.38
2019-05-14T07:04:35.491Z,613.13
2019-05-14T07:05:35.512Z,669.38
2019-05-14T07:06:35.532Z,2430.00
2019-05-14T07:07:35.625Z,793.13
2019-05-14T07:08:35.633Z,759.38
2019-05-14T07:09:35.624Z,877.50
2019-05-14T07:10:35.685Z,686.25
2019-05-14T07:11:35.687Z,551.25
2019-05-14T07:12:35.687Z,613.13
2019-05-14T07:13:38.257Z,753.75
2019-05-14T07:14:35.706Z,815.63
2019-05-14T07:15:38.442Z,489.38
2019-05-14T07:16:35.746Z,781.88
2019-05-14T07:17:38.138Z,1006.88
2019-05-14T07:18:48.531Z,928.13
2019-05-14T07:19:38.287Z,810.00
2019-05-14T07:20:35.829Z,843.75
2019-05-14T07:21:38.209Z,1018.13
2019-05-14T07:22:35.867Z,956.25
2019-05-14T07:23:38.206Z,2970.00
2019-05-14T07:24:38.088Z,2598.75
2019-05-14T07:25:35.932Z,2863.13
2019-05-14T07:26:38.506Z,1411.88
2019-05-14T07:27:35.974Z,1755.00
2019-05-14T07:28:36.071Z,3431.25
2019-05-14T07:29:38.520Z,3071.25
2019-05-14T07:30:36.040Z,826.88
2019-05-14T07:31:38.323Z,883.13
2019-05-14T07:32:36.086Z,708.75
2019-05-14T07:33:38.513Z,1299.38
2019-05-14T07:34:38.370Z,849.38
2019-05-14T07:35:38.098Z,1333.13
2019-05-14T07:36:38.498Z,905.63
2019-05-14T07:37:36.191Z,658.13
2019-05-14T07:38:38.650Z,748.13
2019-05-14T07:39:38.363Z,922.50
2019-05-14T07:40:38.592Z,1350.00
2019-05-14T07:41:38.772Z,905.63
2019-05-14T07:42:38.437Z,697.50
2019-05-14T07:43:39.104Z,2266.88
2019-05-14T07:44:38.861Z,2947.50
2019-05-14T07:45:38.377Z,523.13
2019-05-14T07:46:38.819Z,585.00
2019-05-14T07:47:38.601Z,905.63
2019-05-14T07:48:38.968Z,3144.38
2019-05-14T07:49:38.317Z,3105.00
2019-05-14T07:50:39.437Z,573.75
2019-05-14T07:51:38.581Z,1226.25
2019-05-14T07:52:44.901Z,1957.50
2019-05-14T07:53:41.613Z,984.38
2019-05-14T07:54:38.736Z,995.63
2019-05-14T07:55:38.500Z,832.50
2019-05-14T07:56:38.520Z,826.88
2019-05-14T07:57:39.059Z,838.13
2019-05-14T07:58:38.586Z,776.25
2019-05-14T07:59:38.075Z,686.25
2019-05-14T08:00:36.699Z,613.13
2019-05-14T08:01:38.665Z,613.13
2019-05-14T08:02:37.985Z,635.63
2019-05-14T08:03:38.267Z,736.88
2019-05-14T08:04:38.100Z,810.00
2019-05-14T08:05:38.799Z,883.13
2019-05-14T08:06:39.195Z,1057.50
2019-05-14T08:07:38.633Z,1108.13
2019-05-14T08:08:38.643Z,1040.63
2019-05-14T08:09:38.700Z,1209.38
2019-05-14T08:10:39.057Z,1383.75
2019-05-14T08:11:38.722Z,3532.50
2019-05-14T08:12:38.961Z,1316.25
2019-05-14T08:13:38.973Z,995.63
2019-05-14T08:14:45.512Z,961.88
2019-05-14T08:15:38.715Z,990.00
2019-05-14T08:16:38.121Z,950.63
2019-05-14T08:17:38.749Z,1023.75
2019-05-14T08:18:39.342Z,1203.75
2019-05-14T08:19:38.533Z,1310.63
2019-05-14T08:20:37.990Z,2233.13
2019-05-14T08:21:38.801Z,1321.88
2019-05-14T08:22:38.292Z,1288.13
2019-05-14T08:23:39.094Z,1884.38
2019-05-14T08:24:38.544Z,1265.63
2019-05-14T08:25:39.009Z,1614.38
2019-05-14T08:26:38.228Z,1456.88
2019-05-14T08:27:38.882Z,1215.00
2019-05-14T08:28:38.285Z,1248.75
2019-05-14T08:29:39.897Z,1164.38
2019-05-14T08:30:38.952Z,3729.38
2019-05-14T08:31:38.331Z,967.50
2019-05-14T08:32:39.020Z,781.88
2019-05-14T08:33:39.595Z,866.25
2019-05-14T08:34:38.927Z,3510.00
2019-05-14T08:35:39.281Z,3515.63
2019-05-14T08:36:38.005Z,1839.38
2019-05-14T08:37:38.657Z,1018.13
2019-05-14T08:38:38.277Z,1012.50
2019-05-14T08:39:39.119Z,1102.50
2019-05-14T08:40:38.231Z,1299.38
2019-05-14T08:41:38.386Z,1164.38
2019-05-14T08:42:38.313Z,1153.13
2019-05-14T08:43:39.749Z,1260.00
2019-05-14T08:44:38.996Z,995.63
2019-05-14T08:45:38.927Z,1063.13
2019-05-14T08:46:38.828Z,961.88
2019-05-14T08:47:39.071Z,2863.13
2019-05-14T08:48:38.876Z,1001.25
2019-05-14T08:49:45.559Z,1012.50
2019-05-14T08:50:38.728Z,1040.63
2019-05-14T08:51:38.841Z,1080.00
2019-05-14T08:52:39.304Z,945.00
2019-05-14T08:53:38.541Z,877.50
2019-05-14T08:54:39.148Z,1091.25
2019-05-14T08:55:38.286Z,1125.00
2019-05-14T08:56:38.955Z,843.75
2019-05-14T08:57:38.772Z,753.75
2019-05-14T08:58:38.519Z,759.38
2019-05-14T08:59:39.625Z,843.75
2019-05-14T09:00:38.741Z,871.88
2019-05-14T09:01:38.798Z,877.50
2019-05-14T09:02:39.280Z,1001.25
2019-05-14T09:03:39.225Z,883.13
2019-05-14T09:04:43.079Z,877.50
2019-05-14T09:05:38.595Z,3645.00
2019-05-14T09:06:38.583Z,2430.00
2019-05-14T09:07:38.474Z,1479.38
2019-05-14T09:08:39.075Z,1215.00
2019-05-14T09:09:38.386Z,1310.63
2019-05-14T09:10:40.317Z,883.13
2019-05-14T09:11:44.671Z,618.75
2019-05-14T09:12:38.866Z,517.50
2019-05-14T09:13:38.485Z,405.00
2019-05-14T09:14:38.831Z,354.38
2019-05-14T09:15:38.549Z,354.38
2019-05-14T09:16:46.234Z,421.88
2019-05-14T09:17:39.116Z,523.13
2019-05-14T09:18:38.828Z,697.50
2019-05-14T09:19:39.425Z,933.75
2019-05-14T09:20:38.511Z,3864.38
2019-05-14T09:21:39.850Z,2401.88
2019-05-14T09:22:39.758Z,1243.13
2019-05-14T09:23:39.194Z,2317.50
2019-05-14T09:24:38.877Z,1620.00
2019-05-14T09:25:47.711Z,1344.38
2019-05-14T09:26:39.116Z,1051.88
2019-05-14T09:27:39.011Z,731.25
2019-05-14T09:28:39.171Z,646.88
2019-05-14T09:29:39.428Z,573.75
2019-05-14T09:30:38.753Z,568.13
2019-05-14T09:31:39.266Z,652.50
2019-05-14T09:32:39.017Z,793.13
2019-05-14T09:33:39.074Z,1051.88
2019-05-14T09:34:39.283Z,3476.25
2019-05-14T09:35:38.913Z,1040.63
2019-05-14T09:36:39.549Z,967.50
2019-05-14T09:37:39.617Z,613.13
2019-05-14T09:38:42.331Z,641.25
2019-05-14T09:39:38.946Z,787.50
2019-05-14T09:40:39.683Z,838.13
2019-05-14T09:41:38.991Z,922.50
2019-05-14T09:42:39.467Z,973.13
2019-05-14T09:43:39.372Z,967.50
2019-05-14T09:44:39.061Z,922.50
2019-05-14T09:45:39.079Z,1001.25
2019-05-14T09:46:39.104Z,1175.63
2019-05-14T09:47:39.211Z,1203.75
2019-05-14T09:48:39.146Z,1102.50
2019-05-14T09:49:39.170Z,4606.88
2019-05-14T09:50:39.192Z,1698.75
2019-05-14T09:51:39.215Z,1310.63
2019-05-14T09:52:39.362Z,1496.25
2019-05-14T09:53:39.258Z,1316.25
2019-05-14T09:54:41.747Z,1181.25
2019-05-14T09:55:39.307Z,1321.88
2019-05-14T09:56:39.658Z,4415.63
2019-05-14T09:57:39.412Z,1119.38
2019-05-14T09:58:39.413Z,4860.00
2019-05-14T09:59:39.428Z,2261.25
2019-05-14T10:00:39.480Z,2801.25
2019-05-14T10:01:39.483Z,1867.50
2019-05-14T10:02:39.542Z,3228.75
2019-05-14T10:03:39.497Z,641.25
2019-05-14T10:04:39.526Z,579.38
2019-05-14T10:05:39.545Z,528.75
2019-05-14T10:06:39.580Z,461.25
2019-05-14T10:07:39.595Z,405.00
2019-05-14T10:08:39.622Z,371.25
2019-05-14T10:09:39.643Z,371.25
2019-05-14T10:10:40.074Z,405.00
2019-05-14T10:11:39.688Z,489.38
2019-05-14T10:12:51.884Z,590.63
2019-05-14T10:13:39.739Z,680.63
2019-05-14T10:14:39.759Z,770.63
2019-05-14T10:15:39.795Z,849.38
2019-05-14T10:16:39.808Z,945.00
2019-05-14T10:17:39.827Z,1012.50
2019-05-14T10:18:39.851Z,1046.25
2019-05-14T10:19:39.878Z,1040.63
2019-05-14T10:20:45.281Z,973.13
2019-05-14T10:21:39.926Z,939.38
2019-05-14T10:22:40.023Z,888.75
2019-05-14T10:23:39.967Z,1023.75
2019-05-14T10:24:39.989Z,3532.50
2019-05-14T10:25:42.393Z,3796.88
2019-05-14T10:26:40.037Z,1333.13
2019-05-14T10:27:40.056Z,1265.63
2019-05-14T10:28:43.308Z,1215.00
2019-05-14T10:29:40.100Z,1265.63
2019-05-14T10:30:40.123Z,1299.38
2019-05-14T10:31:40.147Z,1350.00
2019-05-14T10:32:41.674Z,2351.25
2019-05-14T10:33:40.192Z,1271.25
2019-05-14T10:34:40.214Z,1260.00
2019-05-14T10:35:40.236Z,1181.25
2019-05-14T10:36:40.260Z,1108.13
2019-05-14T10:37:40.298Z,1023.75
2019-05-14T10:38:40.307Z,961.88
2019-05-14T10:39:40.330Z,843.75
2019-05-14T10:40:40.351Z,686.25
2019-05-14T10:41:40.379Z,551.25
2019-05-14T10:42:40.636Z,517.50
2019-05-14T10:43:40.418Z,562.50
2019-05-14T10:44:40.448Z,663.75
2019-05-14T10:45:40.463Z,787.50
2019-05-14T10:46:40.488Z,900.00
2019-05-14T10:47:40.511Z,1001.25
2019-05-14T10:48:40.531Z,1108.13
2019-05-14T10:49:40.553Z,4050.00
2019-05-14T10:50:55.837Z,1265.63
2019-05-14T10:51:40.597Z,3757.50
2019-05-14T10:52:40.621Z,4325.63
2019-05-14T10:53:40.651Z,2317.50
2019-05-14T10:54:54.991Z,1136.25
2019-05-14T10:55:40.686Z,3971.25
2019-05-14T10:56:40.711Z,1051.88
2019-05-14T10:57:40.732Z,855.00
2019-05-14T10:58:40.756Z,725.63
2019-05-14T10:59:40.788Z,641.25
2019-05-14T11:00:42.013Z,573.75
2019-05-14T11:01:40.827Z,556.88
2019-05-14T11:02:40.847Z,596.25
2019-05-14T11:03:40.874Z,691.88
2019-05-14T11:04:40.896Z,849.38
2019-05-14T11:05:41.578Z,1046.25
2019-05-14T11:06:40.939Z,1805.63
2019-05-14T11:07:41.757Z,3690.00
2019-05-14T11:08:40.985Z,2728.13
2019-05-14T11:09:41.013Z,1400.63
2019-05-14T11:10:42.165Z,3363.75
2019-05-14T11:11:41.055Z,1884.38
2019-05-14T11:12:41.078Z,1141.88
2019-05-14T11:13:41.100Z,1186.88
2019-05-14T11:14:41.131Z,2992.50
2019-05-14T11:15:41.149Z,2655.00
2019-05-14T11:16:41.896Z,2896.88
2019-05-14T11:17:41.195Z,2733.75
2019-05-14T11:18:41.239Z,967.50
2019-05-14T11:19:41.314Z,663.75
2019-05-14T11:20:42.243Z,523.13
2019-05-14T11:21:41.319Z,427.50
2019-05-14T11:22:41.380Z,354.38
2019-05-14T11:23:41.375Z,326.25
2019-05-14T11:24:41.374Z,320.63
2019-05-14T11:25:41.407Z,331.88
2019-05-14T11:26:41.425Z,371.25
2019-05-14T11:27:41.449Z,427.50
2019-05-14T11:28:41.472Z,511.88
2019-05-14T11:29:41.514Z,551.25
2019-05-14T11:30:41.522Z,568.13
2019-05-14T11:31:41.547Z,579.38
2019-05-14T11:32:41.571Z,624.38
2019-05-14T11:33:41.593Z,669.38
2019-05-14T11:34:41.619Z,714.38
2019-05-14T11:35:41.643Z,770.63
2019-05-14T11:36:41.664Z,855.00
2019-05-14T11:37:41.689Z,939.38
2019-05-14T11:38:41.710Z,1018.13
2019-05-14T11:39:41.733Z,1102.50
2019-05-14T11:40:41.757Z,1428.75
2019-05-14T11:41:41.779Z,1220.63
2019-05-14T11:42:41.799Z,2385.00
2019-05-14T11:43:41.835Z,905.63
2019-05-14T11:44:41.850Z,511.88
2019-05-14T11:45:41.874Z,354.38
2019-05-14T11:46:50.751Z,286.88
2019-05-14T11:47:41.916Z,253.13
2019-05-14T11:48:41.940Z,247.50
2019-05-14T11:49:41.961Z,258.75
2019-05-14T11:50:41.985Z,281.25
2019-05-14T11:51:59.702Z,320.63
2019-05-14T11:52:42.030Z,348.75
2019-05-14T11:53:42.056Z,388.13
2019-05-14T11:54:42.075Z,444.38
2019-05-14T11:55:42.098Z,500.63
2019-05-14T11:56:42.186Z,573.75
2019-05-14T11:57:42.139Z,641.25
2019-05-14T11:58:42.175Z,720.00
2019-05-14T11:59:42.183Z,793.13
2019-05-14T12:00:42.213Z,866.25
2019-05-14T12:01:42.330Z,916.88
2019-05-14T12:02:42.250Z,928.13
2019-05-14T12:03:42.269Z,916.88
2019-05-14T12:04:42.297Z,883.13
2019-05-14T12:05:42.315Z,832.50
2019-05-14T12:06:42.336Z,781.88
2019-05-14T12:07:42.359Z,725.63
2019-05-14T12:08:42.380Z,703.13
2019-05-14T12:09:42.401Z,630.00
2019-05-14T12:10:42.420Z,573.75
2019-05-14T12:11:42.445Z,545.63
2019-05-14T12:12:42.468Z,556.88
2019-05-14T12:13:42.499Z,590.63
2019-05-14T12:14:42.509Z,618.75
2019-05-14T12:15:42.530Z,669.38
2019-05-14T12:16:42.551Z,725.63
2019-05-14T12:17:42.591Z,793.13
2019-05-14T12:18:42.595Z,877.50
2019-05-14T12:19:43.824Z,945.00
2019-05-14T12:20:42.639Z,984.38
2019-05-14T12:21:58.901Z,1035.00
2019-05-14T12:22:42.680Z,1091.25
2019-05-14T12:23:42.707Z,1113.75
2019-05-14T12:24:42.725Z,1141.88
2019-05-14T12:25:42.746Z,1164.38
2019-05-14T12:26:42.765Z,1186.88
2019-05-14T12:27:42.790Z,1192.50
2019-05-14T12:28:42.813Z,1203.75
2019-05-14T12:29:42.834Z,1198.13
2019-05-14T12:30:42.854Z,1181.25
2019-05-14T12:31:42.879Z,1237.50
2019-05-14T12:32:42.901Z,1344.38
2019-05-14T12:33:42.919Z,1473.75
2019-05-14T12:34:42.950Z,1985.63
2019-05-14T12:35:42.965Z,2053.13
2019-05-14T12:36:42.986Z,1839.38